createdAt,value
2018-02-27T00:00:56.437Z,1004.48
2018-02-27T00:01:57.018Z,1004.48
2018-02-27T00:02:57.599Z,1004.50
2018-02-27T00:03:58.233Z,1004.41
2018-02-27T00:04:58.815Z,1004.43
2018-02-27T00:05:59.397Z,1004.36
2018-02-27T00:06:59.980Z,1004.41
2018-02-27T00:08:00.562Z,1004.40
2018-02-27T00:09:01.144Z,1004.38
2018-02-27T00:10:01.777Z,1004.35
2018-02-27T00:11:02.359Z,1004.36
2018-02-27T00:12:02.941Z,1004.41
2018-02-27T00:13:03.522Z,1004.44
2018-02-27T00:14:04.255Z,1004.30
2018-02-27T00:15:04.840Z,1004.33
2018-02-27T00:16:05.471Z,1004.41
2018-02-27T00:17:06.053Z,1004.34
2018-02-27T00:18:06.636Z,1004.40
2018-02-27T00:19:07.219Z,1004.33
2018-02-27T00:20:07.801Z,1004.33
2018-02-27T00:21:08.383Z,1004.30
2018-02-27T00:22:08.965Z,1004.35
2018-02-27T00:23:09.547Z,1004.33
2018-02-27T00:24:10.130Z,1004.36
2018-02-27T00:25:10.716Z,1004.33
2018-02-27T00:26:11.343Z,1004.35
2018-02-27T00:27:11.924Z,1004.33
2018-02-27T00:28:12.504Z,1004.31
2018-02-27T00:29:13.135Z,1004.37
2018-02-27T00:30:13.765Z,1004.33
2018-02-27T00:31:14.549Z,1004.33
2018-02-27T00:32:15.129Z,1004.28
2018-02-27T00:33:15.813Z,1004.26
2018-02-27T00:34:16.392Z,1004.34
2018-02-27T00:35:17.075Z,1004.28
2018-02-27T00:36:17.657Z,1004.22
2018-02-27T00:37:18.238Z,1004.20
2018-02-27T00:38:18.821Z,1004.23
2018-02-27T00:39:19.404Z,1004.24
2018-02-27T00:40:19.985Z,1004.30
2018-02-27T00:41:20.567Z,1004.29
2018-02-27T00:42:21.150Z,1004.34
2018-02-27T00:43:21.731Z,1004.28
2018-02-27T00:44:22.311Z,1004.27
2018-02-27T00:45:22.941Z,1004.37
2018-02-27T00:46:23.524Z,1004.39
2018-02-27T00:47:24.106Z,1004.23
2018-02-27T00:48:24.736Z,1004.35
2018-02-27T00:49:25.319Z,1004.27
2018-02-27T00:50:25.951Z,1004.31
2018-02-27T00:51:26.531Z,1004.23
2018-02-27T00:52:27.163Z,1004.30
2018-02-27T00:53:27.750Z,1004.29
2018-02-27T00:54:28.330Z,1004.27
2018-02-27T00:55:28.912Z,1004.32
2018-02-27T00:56:29.496Z,1004.27
2018-02-27T00:57:30.085Z,1004.31
2018-02-27T00:58:30.708Z,1004.35
2018-02-27T00:59:31.290Z,1004.30
2018-02-27T01:00:31.876Z,1004.37
2018-02-27T01:01:32.455Z,1004.35
2018-02-27T01:02:33.036Z,1004.33
2018-02-27T01:03:33.620Z,1004.25
2018-02-27T01:04:34.200Z,1004.35
2018-02-27T01:05:34.981Z,1004.35
2018-02-27T01:06:35.614Z,1004.28
2018-02-27T01:07:36.292Z,1004.36
2018-02-27T01:08:36.874Z,1004.31
2018-02-27T01:09:37.456Z,1004.36
2018-02-27T01:10:38.038Z,1004.33
2018-02-27T01:11:38.620Z,1004.28
2018-02-27T01:12:39.203Z,1004.25
2018-02-27T01:13:39.787Z,1004.31
2018-02-27T01:14:40.419Z,1004.33
2018-02-27T01:15:40.999Z,1004.28
2018-02-27T01:16:41.583Z,1004.37
2018-02-27T01:17:42.165Z,1004.37
2018-02-27T01:18:42.747Z,1004.37
2018-02-27T01:19:43.330Z,1004.39
2018-02-27T01:20:43.910Z,1004.32
2018-02-27T01:21:44.491Z,1004.28
2018-02-27T01:22:45.125Z,1004.21
2018-02-27T01:23:45.706Z,1004.29
2018-02-27T01:24:46.338Z,1004.32
2018-02-27T01:25:46.922Z,1004.33
2018-02-27T01:26:47.503Z,1004.30
2018-02-27T01:27:48.084Z,1004.30
2018-02-27T01:28:48.664Z,1004.32
2018-02-27T01:29:49.245Z,1004.35
2018-02-27T01:30:49.827Z,1004.31
2018-02-27T01:31:50.410Z,1004.34
2018-02-27T01:32:51.041Z,1004.32
2018-02-27T01:33:51.622Z,1004.29
2018-02-27T01:34:52.253Z,1004.22
2018-02-27T01:35:52.836Z,1004.20
2018-02-27T01:36:53.417Z,1004.20
2018-02-27T01:37:54.000Z,1004.24
2018-02-27T01:38:54.582Z,1004.28
2018-02-27T01:39:55.164Z,1004.32
2018-02-27T01:40:55.797Z,1004.30
2018-02-27T01:41:56.428Z,1004.37
2018-02-27T01:42:57.010Z,1004.28
2018-02-27T01:43:57.590Z,1004.27
2018-02-27T01:44:58.174Z,1004.26
2018-02-27T01:45:58.801Z,1004.32
2018-02-27T01:47:00.238Z,1004.24
2018-02-27T01:48:00.817Z,1004.29
2018-02-27T01:49:01.449Z,1004.28
2018-02-27T01:50:02.032Z,1004.28
2018-02-27T01:51:02.613Z,1004.21
2018-02-27T01:52:03.196Z,1004.25
2018-02-27T01:53:03.778Z,1004.30
2018-02-27T01:54:04.360Z,1004.18
2018-02-27T01:55:04.941Z,1004.21
2018-02-27T01:56:05.525Z,1004.30
2018-02-27T01:57:06.109Z,1004.23
2018-02-27T01:58:06.739Z,1004.21
2018-02-27T01:59:07.321Z,1004.21
2018-02-27T02:00:07.904Z,1004.15
2018-02-27T02:01:08.486Z,1004.21
2018-02-27T02:02:09.116Z,1004.12
2018-02-27T02:03:09.699Z,1004.16
2018-02-27T02:04:10.280Z,1004.14
2018-02-27T02:05:10.862Z,1004.18
2018-02-27T02:06:11.441Z,1004.17
2018-02-27T02:07:12.061Z,1004.15
2018-02-27T02:08:12.682Z,1004.17
2018-02-27T02:09:13.309Z,1004.14
2018-02-27T02:10:13.885Z,1004.08
2018-02-27T02:11:14.464Z,1004.23
2018-02-27T02:12:15.048Z,1004.21
2018-02-27T02:13:15.626Z,1004.17
2018-02-27T02:14:16.205Z,1004.14
2018-02-27T02:15:16.782Z,1004.19
2018-02-27T02:16:17.360Z,1004.12
2018-02-27T02:17:18.088Z,1004.15
2018-02-27T02:18:18.665Z,1004.12
2018-02-27T02:19:19.244Z,1004.17
2018-02-27T02:20:19.872Z,1004.12
2018-02-27T02:21:20.450Z,1004.15
2018-02-27T02:22:21.028Z,1004.12
2018-02-27T02:23:21.604Z,1004.09
2018-02-27T02:24:22.181Z,1004.14
2018-02-27T02:25:22.761Z,1004.07
2018-02-27T02:26:23.381Z,1004.17
2018-02-27T02:27:24.109Z,1004.15
2018-02-27T02:28:24.687Z,1004.15
2018-02-27T02:29:25.263Z,1004.13
2018-02-27T02:30:25.843Z,1004.14
2018-02-27T02:31:26.422Z,1004.07
2018-02-27T02:32:26.999Z,1004.07
2018-02-27T02:33:27.588Z,1004.13
2018-02-27T02:34:28.160Z,1004.03
2018-02-27T02:35:28.739Z,1004.03
2018-02-27T02:36:29.320Z,1003.98
2018-02-27T02:37:30.050Z,1004.01
2018-02-27T02:38:30.673Z,1003.94
2018-02-27T02:39:31.261Z,1004.01
2018-02-27T02:40:31.827Z,1003.91
2018-02-27T02:41:32.405Z,1003.91
2018-02-27T02:42:32.985Z,1003.85
2018-02-27T02:43:33.562Z,1003.82
2018-02-27T02:44:34.189Z,1003.84
2018-02-27T02:45:34.774Z,1003.88
2018-02-27T02:46:35.390Z,1003.86
2018-02-27T02:47:35.968Z,1003.82
2018-02-27T02:48:36.552Z,1003.79
2018-02-27T02:49:37.166Z,1003.84
2018-02-27T02:50:37.744Z,1003.76
2018-02-27T02:51:38.322Z,1003.78
2018-02-27T02:52:38.901Z,1003.76
2018-02-27T02:53:39.480Z,1003.76
2018-02-27T02:54:40.110Z,1003.78
2018-02-27T02:55:40.738Z,1003.80
2018-02-27T02:56:41.317Z,1003.71
2018-02-27T02:57:41.892Z,1003.70
2018-02-27T02:58:42.520Z,1003.76
2018-02-27T02:59:43.097Z,1003.72
2018-02-27T03:00:43.675Z,1003.72
2018-02-27T03:01:44.301Z,1003.75
2018-02-27T03:02:44.879Z,1003.81
2018-02-27T03:03:45.458Z,1003.74
2018-02-27T03:04:46.034Z,1003.73
2018-02-27T03:05:46.612Z,1003.77
2018-02-27T03:06:47.188Z,1003.70
2018-02-27T03:07:47.766Z,1003.76
2018-02-27T03:08:48.342Z,1003.74
2018-02-27T03:09:48.923Z,1003.67
2018-02-27T03:10:49.500Z,1003.73
2018-02-27T03:11:50.078Z,1003.72
2018-02-27T03:12:50.655Z,1003.71
2018-02-27T03:13:51.285Z,1003.68
2018-02-27T03:14:51.860Z,1003.68
2018-02-27T03:15:52.440Z,1003.70
2018-02-27T03:16:53.066Z,1003.66
2018-02-27T03:17:53.642Z,1003.68
2018-02-27T03:18:54.222Z,1003.64
2018-02-27T03:19:54.853Z,1003.59
2018-02-27T03:20:55.477Z,1003.59
2018-02-27T03:21:56.060Z,1003.58
2018-02-27T03:22:56.637Z,1003.52
2018-02-27T03:23:57.212Z,1003.63
2018-02-27T03:24:57.787Z,1003.59
2018-02-27T03:25:58.365Z,1003.56
2018-02-27T03:26:58.943Z,1003.57
2018-02-27T03:27:59.522Z,1003.56
2018-02-27T03:29:00.100Z,1003.57
2018-02-27T03:30:00.720Z,1003.62
2018-02-27T03:31:01.299Z,1003.66
2018-02-27T03:32:01.875Z,1003.66
2018-02-27T03:33:02.502Z,1003.59
2018-02-27T03:34:03.084Z,1003.65
2018-02-27T03:35:03.652Z,1003.67
2018-02-27T03:36:04.227Z,1003.54
2018-02-27T03:37:04.802Z,1003.60
2018-02-27T03:38:05.529Z,1003.61
2018-02-27T03:39:06.155Z,1003.59
2018-02-27T03:40:06.728Z,1003.64
2018-02-27T03:41:07.307Z,1003.57
2018-02-27T03:42:07.878Z,1003.62
2018-02-27T03:43:08.455Z,1003.63
2018-02-27T03:44:09.033Z,1003.53
2018-02-27T03:45:09.652Z,1003.65
2018-02-27T03:46:10.232Z,1003.59
2018-02-27T03:47:10.802Z,1003.57
2018-02-27T03:48:11.378Z,1003.57
2018-02-27T03:49:11.953Z,1003.63
2018-02-27T03:50:12.530Z,1003.66
2018-02-27T03:51:13.112Z,1003.69
2018-02-27T03:52:13.838Z,1003.62
2018-02-27T03:53:14.416Z,1003.65
2018-02-27T03:54:15.040Z,1003.70
2018-02-27T03:55:15.617Z,1003.67
2018-02-27T03:56:16.193Z,1003.64
2018-02-27T03:57:16.770Z,1003.70
2018-02-27T03:58:17.349Z,1003.67
2018-02-27T03:59:17.919Z,1003.67
2018-02-27T04:00:18.546Z,1003.67
2018-02-27T04:01:19.121Z,1003.65
2018-02-27T04:02:19.697Z,1003.70
2018-02-27T04:03:20.279Z,1003.64
2018-02-27T04:04:20.855Z,1003.61
2018-02-27T04:05:21.438Z,1003.65
2018-02-27T04:06:22.016Z,1003.53
2018-02-27T04:07:22.592Z,1003.70
2018-02-27T04:08:23.324Z,1003.65
2018-02-27T04:09:23.901Z,1003.64
2018-02-27T04:10:24.481Z,1003.67
2018-02-27T04:11:25.058Z,1003.66
2018-02-27T04:12:25.687Z,1003.79
2018-02-27T04:13:26.272Z,1003.68
2018-02-27T04:14:26.843Z,1003.66
2018-02-27T04:15:27.421Z,1003.73
2018-02-27T04:16:28.000Z,1003.74
2018-02-27T04:17:28.622Z,1003.77
2018-02-27T04:18:29.250Z,1003.72
2018-02-27T04:19:29.830Z,1003.68
2018-02-27T04:20:30.416Z,1003.73
2018-02-27T04:21:30.993Z,1003.68
2018-02-27T04:22:31.622Z,1003.77
2018-02-27T04:23:32.206Z,1003.71
2018-02-27T04:24:32.785Z,1003.78
2018-02-27T04:25:33.363Z,1003.73
2018-02-27T04:26:33.945Z,1003.78
2018-02-27T04:27:34.524Z,1003.77
2018-02-27T04:28:35.153Z,1003.77
2018-02-27T04:29:35.736Z,1003.76
2018-02-27T04:30:36.316Z,1003.72
2018-02-27T04:31:36.905Z,1003.84
2018-02-27T04:32:37.525Z,1003.87
2018-02-27T04:33:38.156Z,1003.85
2018-02-27T04:34:38.737Z,1003.86
2018-02-27T04:35:39.313Z,1003.83
2018-02-27T04:36:39.890Z,1003.85
2018-02-27T04:37:40.466Z,1003.84
2018-02-27T04:38:41.096Z,1003.84
2018-02-27T04:39:41.672Z,1003.89
2018-02-27T04:40:42.252Z,1003.86
2018-02-27T04:41:42.831Z,1003.89
2018-02-27T04:42:43.412Z,1003.95
2018-02-27T04:43:43.995Z,1003.84
2018-02-27T04:44:44.573Z,1003.82
2018-02-27T04:45:45.202Z,1003.88
2018-02-27T04:46:45.783Z,1003.86
2018-02-27T04:47:46.358Z,1003.81
2018-02-27T04:48:46.938Z,1003.89
2018-02-27T04:49:47.516Z,1003.83
2018-02-27T04:50:48.094Z,1003.85
2018-02-27T04:51:48.673Z,1003.80
2018-02-27T04:52:49.252Z,1003.93
2018-02-27T04:53:49.830Z,1003.88
2018-02-27T04:54:50.408Z,1003.85
2018-02-27T04:55:51.043Z,1003.85
2018-02-27T04:56:51.624Z,1003.79
2018-02-27T04:57:52.205Z,1003.96
2018-02-27T04:58:52.782Z,1003.86
2018-02-27T04:59:53.358Z,1003.79
2018-02-27T05:00:53.984Z,1003.84
2018-02-27T05:01:54.562Z,1003.79
2018-02-27T05:02:55.142Z,1003.74
2018-02-27T05:03:55.725Z,1003.79
2018-02-27T05:04:56.317Z,1003.88
2018-02-27T05:05:56.897Z,1003.88
2018-02-27T05:06:57.472Z,1003.78
2018-02-27T05:07:58.054Z,1003.85
2018-02-27T05:08:58.644Z,1003.81
2018-02-27T05:09:59.222Z,1003.79
2018-02-27T05:10:59.816Z,1003.84
2018-02-27T05:12:00.436Z,1003.83
2018-02-27T05:13:01.018Z,1003.81
2018-02-27T05:14:01.650Z,1003.80
2018-02-27T05:15:02.232Z,1003.86
2018-02-27T05:16:02.807Z,1003.86
2018-02-27T05:17:03.384Z,1003.84
2018-02-27T05:18:04.013Z,1003.86
2018-02-27T05:19:04.595Z,1003.82
2018-02-27T05:20:05.169Z,1003.82
2018-02-27T05:21:05.748Z,1003.88
2018-02-27T05:22:06.329Z,1003.83
2018-02-27T05:23:06.917Z,1003.88
2018-02-27T05:24:07.488Z,1003.81
2018-02-27T05:25:08.066Z,1003.89
2018-02-27T05:26:08.644Z,1003.92
2018-02-27T05:27:09.224Z,1003.87
2018-02-27T05:28:09.851Z,1003.87
2018-02-27T05:29:10.430Z,1003.89
2018-02-27T05:30:11.011Z,1003.82
2018-02-27T05:31:11.589Z,1003.87
2018-02-27T05:32:12.222Z,1003.86
2018-02-27T05:33:12.805Z,1003.92
2018-02-27T05:34:13.384Z,1003.88
2018-02-27T05:35:13.965Z,1003.91
2018-02-27T05:36:14.545Z,1003.90
2018-02-27T05:37:15.176Z,1003.90
2018-02-27T05:38:15.756Z,1003.88
2018-02-27T05:39:16.339Z,1003.90
2018-02-27T05:40:16.920Z,1003.95
2018-02-27T05:41:17.502Z,1003.97
2018-02-27T05:42:18.082Z,1003.98
2018-02-27T05:43:18.660Z,1003.96
2018-02-27T05:44:19.285Z,1003.94
2018-02-27T05:45:19.864Z,1003.95
2018-02-27T05:46:20.443Z,1003.93
2018-02-27T05:47:21.024Z,1003.93
2018-02-27T05:48:21.652Z,1003.84
2018-02-27T05:49:22.231Z,1003.83
2018-02-27T05:50:22.813Z,1003.88
2018-02-27T05:51:23.395Z,1003.79
2018-02-27T05:52:23.974Z,1003.89
2018-02-27T05:53:24.554Z,1003.87
2018-02-27T05:54:25.150Z,1003.88
2018-02-27T05:55:25.721Z,1003.86
2018-02-27T05:56:26.299Z,1003.82
2018-02-27T05:57:26.935Z,1003.86
2018-02-27T05:58:27.510Z,1003.82
2018-02-27T05:59:28.138Z,1003.82
2018-02-27T06:00:28.717Z,1003.86
2018-02-27T06:01:29.299Z,1003.83
2018-02-27T06:02:29.879Z,1003.83
2018-02-27T06:03:30.463Z,1003.85
2018-02-27T06:04:31.039Z,1003.89
2018-02-27T06:05:31.617Z,1003.88
2018-02-27T06:06:32.243Z,1003.89
2018-02-27T06:07:32.822Z,1003.92
2018-02-27T06:08:33.399Z,1003.85
2018-02-27T06:09:34.025Z,1003.90
2018-02-27T06:10:34.602Z,1003.85
2018-02-27T06:11:35.180Z,1003.87
2018-02-27T06:12:35.759Z,1003.87
2018-02-27T06:13:36.337Z,1003.90
2018-02-27T06:14:36.914Z,1003.91
2018-02-27T06:15:37.493Z,1003.90
2018-02-27T06:16:38.180Z,1003.96
2018-02-27T06:17:38.762Z,1003.91
2018-02-27T06:18:39.388Z,1003.93
2018-02-27T06:19:39.969Z,1003.88
2018-02-27T06:20:40.543Z,1003.97
2018-02-27T06:21:41.124Z,1003.89
2018-02-27T06:22:41.701Z,1003.93
2018-02-27T06:23:42.279Z,1003.93
2018-02-27T06:24:42.861Z,1003.87
2018-02-27T06:25:43.440Z,1003.89
2018-02-27T06:26:44.021Z,1003.90
2018-02-27T06:27:44.604Z,1003.93
2018-02-27T06:28:45.229Z,1003.87
2018-02-27T06:29:45.813Z,1003.91
2018-02-27T06:30:46.492Z,1003.95
2018-02-27T06:31:47.171Z,1003.92
2018-02-27T06:32:47.744Z,1003.91
2018-02-27T06:33:48.323Z,1003.94
2018-02-27T06:34:48.901Z,1004.05
2018-02-27T06:35:49.529Z,1003.99
2018-02-27T06:36:50.111Z,1003.96
2018-02-27T06:37:50.791Z,1004.01
2018-02-27T06:38:51.367Z,1004.01
2018-02-27T06:39:51.948Z,1003.95
2018-02-27T06:40:52.525Z,1003.99
2018-02-27T06:41:53.102Z,1003.90
2018-02-27T06:42:53.682Z,1003.96
2018-02-27T06:43:54.259Z,1004.07
2018-02-27T06:44:54.834Z,1004.01
2018-02-27T06:45:55.413Z,1004.00
2018-02-27T06:46:55.990Z,1004.04
2018-02-27T06:47:56.620Z,1003.97
2018-02-27T06:48:57.206Z,1003.97
2018-02-27T06:49:57.832Z,1003.95
2018-02-27T06:50:58.412Z,1003.95
2018-02-27T06:51:58.995Z,1004.04
2018-02-27T06:52:59.572Z,1004.00
2018-02-27T06:54:00.203Z,1003.99
2018-02-27T06:55:00.785Z,1004.05
2018-02-27T06:56:01.366Z,1004.05
2018-02-27T06:57:01.947Z,1004.06
2018-02-27T06:58:02.525Z,1004.04
2018-02-27T06:59:03.104Z,1004.06
2018-02-27T07:00:03.683Z,1004.09
2018-02-27T07:01:04.310Z,1004.10
2018-02-27T07:02:04.891Z,1004.09
2018-02-27T07:03:05.470Z,1004.11
2018-02-27T07:04:06.057Z,1004.14
2018-02-27T07:05:06.630Z,1004.16
2018-02-27T07:06:07.208Z,1004.09
2018-02-27T07:07:07.936Z,1004.17
2018-02-27T07:08:08.516Z,1004.14
2018-02-27T07:09:09.093Z,1004.08
2018-02-27T07:10:09.672Z,1004.13
2018-02-27T07:11:10.252Z,1004.12
2018-02-27T07:12:10.877Z,1004.17
2018-02-27T07:13:11.456Z,1004.11
2018-02-27T07:14:12.040Z,1004.16
2018-02-27T07:15:12.615Z,1004.17
2018-02-27T07:16:13.195Z,1004.17
2018-02-27T07:17:13.772Z,1004.17
2018-02-27T07:18:14.355Z,1004.28
2018-02-27T07:19:14.989Z,1004.19
2018-02-27T07:20:15.619Z,1004.28
2018-02-27T07:21:16.203Z,1004.35
2018-02-27T07:22:16.830Z,1004.23
2018-02-27T07:23:17.412Z,1004.27
2018-02-27T07:24:17.996Z,1004.31
2018-02-27T07:25:18.579Z,1004.35
2018-02-27T07:26:19.400Z,1004.30
2018-02-27T07:27:19.982Z,1004.34
2018-02-27T07:28:20.560Z,1004.35
2018-02-27T07:29:21.194Z,1004.29
2018-02-27T07:30:21.767Z,1004.37
2018-02-27T07:31:22.345Z,1004.37
2018-02-27T07:32:22.925Z,1004.42
2018-02-27T07:33:23.506Z,1004.39
2018-02-27T07:34:24.084Z,1004.40
2018-02-27T07:35:24.713Z,1004.33
2018-02-27T07:36:25.295Z,1004.41
2018-02-27T07:37:25.874Z,1004.39
2018-02-27T07:38:26.455Z,1004.46
2018-02-27T07:39:27.037Z,1004.47
2018-02-27T07:40:27.610Z,1004.40
2018-02-27T07:41:28.191Z,1004.42
2018-02-27T07:42:28.769Z,1004.42
2018-02-27T07:43:29.347Z,1004.39
2018-02-27T07:44:29.923Z,1004.39
2018-02-27T07:45:30.507Z,1004.43
2018-02-27T07:46:31.088Z,1004.39
2018-02-27T07:47:31.663Z,1004.40
2018-02-27T07:48:32.398Z,1004.46
2018-02-27T07:49:32.977Z,1004.42
2018-02-27T07:50:33.605Z,1004.50
2018-02-27T07:51:34.191Z,1004.50
2018-02-27T07:52:34.884Z,1004.45
2018-02-27T07:53:35.446Z,1004.50
2018-02-27T07:54:36.027Z,1004.47
2018-02-27T07:55:36.610Z,1004.50
2018-02-27T07:56:37.192Z,1004.45
2018-02-27T07:57:37.772Z,1004.58
2018-02-27T07:58:38.353Z,1004.50
2018-02-27T07:59:38.941Z,1004.52
2018-02-27T08:00:39.519Z,1004.56
2018-02-27T08:01:40.103Z,1004.58
2018-02-27T08:02:40.686Z,1004.63
2018-02-27T08:03:41.264Z,1004.58
2018-02-27T08:04:41.897Z,1004.54
2018-02-27T08:05:42.479Z,1004.61
2018-02-27T08:06:43.061Z,1004.54
2018-02-27T08:07:43.693Z,1004.63
2018-02-27T08:08:44.275Z,1004.61
2018-02-27T08:09:44.905Z,1004.64
2018-02-27T08:10:45.488Z,1004.60
2018-02-27T08:11:46.064Z,1004.60
2018-02-27T08:12:46.643Z,1004.63
2018-02-27T08:13:47.243Z,1004.55
2018-02-27T08:14:47.809Z,1004.65
2018-02-27T08:15:48.388Z,1004.63
2018-02-27T08:16:48.970Z,1004.67
2018-02-27T08:17:49.546Z,1004.65
2018-02-27T08:18:50.125Z,1004.62
2018-02-27T08:19:50.703Z,1004.68
2018-02-27T08:20:51.285Z,1004.69
2018-02-27T08:21:51.951Z,1004.70
2018-02-27T08:22:52.545Z,1004.77
2018-02-27T08:23:53.125Z,1004.75
2018-02-27T08:24:53.707Z,1004.72
2018-02-27T08:25:54.338Z,1004.78
2018-02-27T08:26:54.926Z,1004.77
2018-02-27T08:27:55.503Z,1004.75
2018-02-27T08:28:56.082Z,1004.76
2018-02-27T08:29:56.669Z,1004.77
2018-02-27T08:30:57.253Z,1004.79
2018-02-27T08:31:57.834Z,1004.74
2018-02-27T08:32:58.418Z,1004.78
2018-02-27T08:33:59.001Z,1004.81
2018-02-27T08:34:59.632Z,1004.67
2018-02-27T08:36:00.213Z,1004.73
2018-02-27T08:37:00.796Z,1004.83
2018-02-27T08:38:01.432Z,1004.73
2018-02-27T08:39:02.057Z,1004.74
2018-02-27T08:40:02.688Z,1004.71
2018-02-27T08:41:03.268Z,1004.76
2018-02-27T08:42:03.854Z,1004.76
2018-02-27T08:43:04.489Z,1004.75
2018-02-27T08:44:05.066Z,1004.81
2018-02-27T08:45:05.652Z,1004.75
2018-02-27T08:46:06.281Z,1004.68
2018-02-27T08:47:06.866Z,1004.74
2018-02-27T08:48:07.444Z,1004.79
2018-02-27T08:49:08.030Z,1004.74
2018-02-27T08:50:08.606Z,1004.78
2018-02-27T08:51:09.236Z,1004.75
2018-02-27T08:52:09.815Z,1004.80
2018-02-27T08:53:10.396Z,1004.73
2018-02-27T08:54:11.027Z,1004.72
2018-02-27T08:55:11.609Z,1004.72
2018-02-27T08:56:12.235Z,1004.71
2018-02-27T08:57:12.771Z,1004.71
2018-02-27T08:58:13.353Z,1004.65
2018-02-27T08:59:13.937Z,1004.69
2018-02-27T09:00:14.519Z,1004.69
2018-02-27T09:01:15.101Z,1004.62
2018-02-27T09:02:15.684Z,1004.62
2018-02-27T09:03:16.268Z,1004.61
2018-02-27T09:04:16.853Z,1004.55
2018-02-27T09:05:17.488Z,1004.64
2018-02-27T09:06:18.067Z,1004.60
2018-02-27T09:07:18.649Z,1004.53
2018-02-27T09:08:19.273Z,1004.63
2018-02-27T09:09:19.859Z,1004.56
2018-02-27T09:10:20.442Z,1004.60
2018-02-27T09:11:21.031Z,1004.54
2018-02-27T09:12:21.651Z,1004.66
2018-02-27T09:13:22.285Z,1004.64
2018-02-27T09:14:22.914Z,1004.59
2018-02-27T09:15:23.503Z,1004.57
2018-02-27T09:16:24.123Z,1004.60
2018-02-27T09:17:24.706Z,1004.67
2018-02-27T09:18:25.285Z,1004.64
2018-02-27T09:19:25.867Z,1004.63
2018-02-27T09:20:26.454Z,1004.72
2018-02-27T09:21:27.077Z,1004.61
2018-02-27T09:22:27.748Z,1004.72
2018-02-27T09:23:28.334Z,1004.68
2018-02-27T09:24:28.917Z,1004.59
2018-02-27T09:25:29.501Z,1004.68
2018-02-27T09:26:30.078Z,1004.62
2018-02-27T09:27:30.701Z,1004.79
2018-02-27T09:28:31.281Z,1004.72
2018-02-27T09:29:31.915Z,1004.78
2018-02-27T09:30:32.498Z,1004.72
2018-02-27T09:31:33.083Z,1004.72
2018-02-27T09:32:33.669Z,1004.78
2018-02-27T09:33:34.301Z,1004.78
2018-02-27T09:34:34.882Z,1004.81
2018-02-27T09:35:35.464Z,1004.80
2018-02-27T09:36:36.048Z,1004.79
2018-02-27T09:37:36.666Z,1004.86
2018-02-27T09:38:37.262Z,1004.81
2018-02-27T09:39:37.794Z,1004.79
2018-02-27T09:40:38.381Z,1004.90
2018-02-27T09:41:39.011Z,1004.84
2018-02-27T09:42:39.589Z,1004.75
2018-02-27T09:43:40.173Z,1004.74
2018-02-27T09:44:40.751Z,1004.77
2018-02-27T09:45:41.484Z,1004.77
2018-02-27T09:46:42.065Z,1004.72
2018-02-27T09:47:42.647Z,1004.75
2018-02-27T09:48:43.230Z,1004.76
2018-02-27T09:49:43.814Z,1004.79
2018-02-27T09:50:44.444Z,1004.79
2018-02-27T09:51:45.028Z,1004.88
2018-02-27T09:52:45.609Z,1004.75
2018-02-27T09:53:46.193Z,1004.76
2018-02-27T09:54:46.775Z,1004.72
2018-02-27T09:55:47.358Z,1004.76
2018-02-27T09:56:47.943Z,1004.75
2018-02-27T09:57:48.523Z,1004.77
2018-02-27T09:58:49.107Z,1004.83
2018-02-27T09:59:49.742Z,1004.78
2018-02-27T10:00:50.373Z,1004.80
2018-02-27T10:01:50.960Z,1004.78
2018-02-27T10:02:51.587Z,1004.69
2018-02-27T10:03:52.211Z,1004.76
2018-02-27T10:04:52.795Z,1004.76
2018-02-27T10:05:53.428Z,1004.71
2018-02-27T10:06:54.012Z,1004.72
2018-02-27T10:07:54.592Z,1004.72
2018-02-27T10:08:55.177Z,1004.74
2018-02-27T10:09:55.760Z,1004.68
2018-02-27T10:10:56.340Z,1004.68
2018-02-27T10:11:56.923Z,1004.65
2018-02-27T10:12:57.502Z,1004.59
2018-02-27T10:13:58.086Z,1004.65
2018-02-27T10:14:58.675Z,1004.66
2018-02-27T10:15:59.307Z,1004.61
2018-02-27T10:17:00.039Z,1004.53
2018-02-27T10:18:00.624Z,1004.53
2018-02-27T10:19:01.209Z,1004.51
2018-02-27T10:20:01.842Z,1004.60
2018-02-27T10:21:02.428Z,1004.57
2018-02-27T10:22:03.012Z,1004.65
2018-02-27T10:23:03.650Z,1004.54
2018-02-27T10:24:04.276Z,1004.56
2018-02-27T10:25:04.906Z,1004.58
2018-02-27T10:26:05.539Z,1004.58
2018-02-27T10:27:06.123Z,1004.52
2018-02-27T10:28:06.706Z,1004.56
2018-02-27T10:29:07.290Z,1004.58
2018-02-27T10:30:07.874Z,1004.52
2018-02-27T10:31:08.455Z,1004.55
2018-02-27T10:32:09.038Z,1004.49
2018-02-27T10:33:09.618Z,1004.53
2018-02-27T10:34:10.201Z,1004.55
2018-02-27T10:35:10.784Z,1004.63
2018-02-27T10:36:11.365Z,1004.55
2018-02-27T10:37:11.998Z,1004.65
2018-02-27T10:38:12.581Z,1004.55
2018-02-27T10:39:13.213Z,1004.63
2018-02-27T10:40:13.795Z,1004.65
2018-02-27T10:41:14.380Z,1004.66
2018-02-27T10:42:15.011Z,1004.65
2018-02-27T10:43:15.600Z,1004.64
2018-02-27T10:44:16.237Z,1004.69
2018-02-27T10:45:16.817Z,1004.62
2018-02-27T10:46:17.399Z,1004.67
2018-02-27T10:47:17.981Z,1004.67
2018-02-27T10:48:18.564Z,1004.69
2018-02-27T10:49:19.144Z,1004.67
2018-02-27T10:50:19.727Z,1004.71
2018-02-27T10:51:20.313Z,1004.74
2018-02-27T10:52:20.894Z,1004.72
2018-02-27T10:53:21.480Z,1004.72
2018-02-27T10:54:22.066Z,1004.66
2018-02-27T10:55:22.701Z,1004.67
2018-02-27T10:56:23.337Z,1004.70
2018-02-27T10:57:23.920Z,1004.66
2018-02-27T10:58:24.504Z,1004.78
2018-02-27T10:59:25.081Z,1004.80
2018-02-27T11:00:25.716Z,1004.80
2018-02-27T11:01:26.299Z,1004.80
2018-02-27T11:02:26.929Z,1004.81
2018-02-27T11:03:27.515Z,1004.80
2018-02-27T11:04:28.100Z,1004.83
2018-02-27T11:05:28.686Z,1004.84
2018-02-27T11:06:29.267Z,1004.76
2018-02-27T11:07:29.852Z,1004.86
2018-02-27T11:08:30.439Z,1004.69
2018-02-27T11:09:31.021Z,1004.68
2018-02-27T11:10:31.605Z,1004.74
2018-02-27T11:11:32.182Z,1004.81
2018-02-27T11:12:32.766Z,1004.71
2018-02-27T11:13:33.347Z,1004.79
2018-02-27T11:14:33.926Z,1004.69
2018-02-27T11:15:34.559Z,1004.73
2018-02-27T11:16:35.195Z,1004.73
2018-02-27T11:17:35.828Z,1004.75
2018-02-27T11:18:36.452Z,1004.80
2018-02-27T11:19:37.033Z,1004.71
2018-02-27T11:20:37.614Z,1004.75
2018-02-27T11:21:38.196Z,1004.79
2018-02-27T11:22:38.782Z,1004.77
2018-02-27T11:23:39.405Z,1004.78
2018-02-27T11:24:39.989Z,1004.77
2018-02-27T11:25:40.571Z,1004.80
2018-02-27T11:26:41.151Z,1004.85
2018-02-27T11:27:41.736Z,1004.81
2018-02-27T11:28:42.371Z,1004.76
2018-02-27T11:29:42.957Z,1004.74
2018-02-27T11:30:43.540Z,1004.74
2018-02-27T11:31:44.121Z,1004.78
2018-02-27T11:32:44.706Z,1004.73
2018-02-27T11:33:45.293Z,1004.81
2018-02-27T11:34:45.927Z,1004.75
2018-02-27T11:35:46.561Z,1004.80
2018-02-27T11:36:47.144Z,1004.79
2018-02-27T11:37:47.777Z,1004.73
2018-02-27T11:38:48.361Z,1004.80
2018-02-27T11:39:48.941Z,1004.76
2018-02-27T11:40:49.522Z,1004.74
2018-02-27T11:41:50.108Z,1004.69
2018-02-27T11:42:50.697Z,1004.65
2018-02-27T11:43:51.273Z,1004.72
2018-02-27T11:44:51.856Z,1004.70
2018-02-27T11:45:52.488Z,1004.62
2018-02-27T11:46:53.072Z,1004.71
2018-02-27T11:47:53.650Z,1004.68
2018-02-27T11:48:54.233Z,1004.67
2018-02-27T11:49:54.815Z,1004.64
2018-02-27T11:50:55.449Z,1004.73
2018-02-27T11:51:56.032Z,1004.69
2018-02-27T11:52:56.617Z,1004.70
2018-02-27T11:53:57.246Z,1004.64
2018-02-27T11:54:57.976Z,1004.63
2018-02-27T11:55:58.560Z,1004.68
2018-02-27T11:56:59.146Z,1004.64
2018-02-27T11:57:59.728Z,1004.68
2018-02-27T11:59:00.311Z,1004.61
2018-02-27T12:00:00.892Z,1004.59
2018-02-27T12:01:01.478Z,1004.61
2018-02-27T12:02:02.058Z,1004.57
2018-02-27T12:03:02.639Z,1004.57
2018-02-27T12:04:03.225Z,1004.61
2018-02-27T12:05:03.807Z,1004.56
2018-02-27T12:06:04.391Z,1004.51
2018-02-27T12:07:04.975Z,1004.42
2018-02-27T12:08:05.561Z,1004.44
2018-02-27T12:09:06.241Z,1004.50
2018-02-27T12:10:06.826Z,1004.51
2018-02-27T12:11:07.410Z,1004.47
2018-02-27T12:12:08.139Z,1004.44
2018-02-27T12:13:08.770Z,1004.46